createdAt,value
2023-01-26T00:01:22.373Z,19.00
2023-01-26T00:03:50.231Z,17.10
2023-01-26T00:06:18.918Z,17.10
2023-01-26T00:08:47.957Z,16.67
2023-01-26T00:11:18.774Z,14.98
2023-01-26T00:13:45.827Z,13.77
2023-01-26T00:16:15.060Z,13.85
2023-01-26T00:18:43.088Z,14.15
2023-01-26T00:21:17.111Z,14.27
2023-01-26T00:23:43.936Z,15.13
2023-01-26T00:26:14.023Z,13.95
2023-01-26T00:28:40.802Z,15.05
2023-01-26T00:31:15.634Z,14.80
2023-01-26T00:33:42.340Z,15.95
2023-01-26T00:36:09.648Z,16.42
2023-01-26T00:38:36.262Z,17.52
2023-01-26T00:41:02.948Z,16.27
2023-01-26T00:43:29.832Z,16.65
2023-01-26T00:45:56.473Z,17.48
2023-01-26T00:48:24.808Z,18.52
2023-01-26T00:50:52.725Z,18.90
2023-01-26T00:53:19.568Z,19.10
2023-01-26T00:55:46.211Z,19.10
2023-01-26T00:58:12.898Z,19.42
2023-01-26T01:00:39.578Z,19.90
2023-01-26T01:03:06.348Z,20.38
2023-01-26T01:05:33.757Z,20.13
2023-01-26T01:08:00.555Z,18.52
2023-01-26T01:10:27.671Z,17.48
2023-01-26T01:12:54.689Z,17.67
2023-01-26T01:15:21.265Z,17.15
2023-01-26T01:17:48.330Z,14.80
2023-01-26T01:20:15.068Z,15.65
2023-01-26T01:22:41.719Z,15.93
2023-01-26T01:25:08.743Z,15.40
2023-01-26T01:27:35.326Z,14.65
2023-01-26T01:30:07.712Z,15.48
2023-01-26T01:32:40.039Z,15.20
2023-01-26T01:35:07.783Z,12.63
2023-01-26T01:37:36.767Z,13.02
2023-01-26T01:40:03.566Z,12.15
2023-01-26T01:42:30.222Z,11.63
2023-01-26T01:45:38.186Z,9.57
2023-01-26T01:48:10.601Z,7.97
2023-01-26T01:50:39.751Z,7.72
2023-01-26T01:53:11.567Z,7.90
2023-01-26T01:58:05.961Z,7.60
2023-01-26T02:00:32.864Z,6.35
2023-01-26T02:03:19.149Z,6.88
2023-01-26T02:06:18.153Z,6.63
2023-01-26T02:08:49.060Z,6.53
2023-01-26T02:11:20.650Z,7.37
2023-01-26T02:13:49.163Z,6.18
2023-01-26T02:16:17.218Z,7.00
2023-01-26T02:18:45.708Z,7.40
2023-01-26T02:21:18.155Z,7.90
2023-01-26T02:24:22.499Z,7.68
2023-01-26T02:26:49.323Z,7.95
2023-01-26T02:29:15.965Z,8.43
2023-01-26T02:31:43.073Z,8.77
2023-01-26T02:34:10.028Z,9.18
2023-01-26T02:36:36.645Z,9.15
2023-01-26T02:39:18.103Z,8.77
2023-01-26T02:42:04.691Z,8.95
2023-01-26T02:44:32.386Z,9.63
2023-01-26T02:46:58.927Z,9.27
2023-01-26T02:49:43.886Z,9.55
2023-01-26T02:52:10.498Z,10.10
2023-01-26T02:54:55.356Z,10.25
2023-01-26T02:57:22.008Z,9.70
2023-01-26T02:59:48.688Z,9.85
2023-01-26T03:02:15.743Z,9.77
2023-01-26T03:04:43.441Z,9.85
2023-01-26T03:07:10.779Z,10.73
2023-01-26T03:09:37.544Z,10.93
2023-01-26T03:12:04.502Z,10.73
2023-01-26T03:14:31.085Z,11.45
2023-01-26T03:16:57.639Z,10.68
2023-01-26T03:19:42.817Z,10.90
2023-01-26T03:22:30.100Z,10.85
2023-01-26T03:25:15.054Z,11.25
2023-01-26T03:27:46.952Z,10.82
2023-01-26T03:32:41.787Z,9.82
2023-01-26T03:35:15.401Z,10.23
2023-01-26T03:37:45.142Z,10.45
2023-01-26T03:40:31.462Z,10.98
2023-01-26T03:43:16.406Z,10.43
2023-01-26T03:46:01.800Z,10.85
2023-01-26T03:48:47.068Z,11.20
2023-01-26T03:51:31.999Z,11.57
2023-01-26T03:54:16.991Z,11.63
2023-01-26T03:56:44.632Z,10.85
2023-01-26T03:59:15.149Z,11.93
2023-01-26T04:02:03.324Z,12.27
2023-01-26T04:04:48.784Z,13.13
2023-01-26T04:07:33.884Z,12.93
2023-01-26T04:10:00.523Z,15.30
2023-01-26T04:12:27.156Z,14.48
2023-01-26T04:15:12.055Z,14.27
2023-01-26T04:17:57.181Z,15.18
2023-01-26T04:20:42.188Z,15.00
2023-01-26T04:23:17.846Z,14.80
2023-01-26T04:25:44.413Z,14.85
2023-01-26T04:28:10.999Z,16.02
2023-01-26T04:30:37.607Z,13.95
2023-01-26T04:33:04.715Z,13.77
2023-01-26T04:35:31.262Z,14.65
2023-01-26T04:37:57.847Z,14.32
2023-01-26T04:40:24.683Z,14.43
2023-01-26T04:42:51.230Z,13.70
2023-01-26T04:45:17.823Z,12.10
2023-01-26T04:47:44.412Z,12.40
2023-01-26T04:50:11.345Z,11.60
2023-01-26T04:52:38.153Z,11.57
2023-01-26T04:55:05.011Z,10.77
2023-01-26T04:57:31.561Z,10.40
2023-01-26T04:59:58.158Z,10.60
2023-01-26T05:02:24.711Z,10.27
2023-01-26T05:04:51.273Z,9.30
2023-01-26T05:07:17.875Z,8.90
2023-01-26T05:09:44.455Z,8.77
2023-01-26T05:12:29.585Z,8.80
2023-01-26T05:14:56.141Z,7.85
2023-01-26T05:17:22.756Z,8.95
2023-01-26T05:19:49.311Z,8.18
2023-01-26T05:22:16.007Z,8.23
2023-01-26T05:24:42.574Z,8.27
2023-01-26T05:27:21.113Z,8.25
2023-01-26T05:29:48.189Z,9.27
2023-01-26T05:32:14.795Z,8.70
2023-01-26T05:34:41.402Z,7.78
2023-01-26T05:37:07.992Z,7.80
2023-01-26T05:39:34.559Z,7.45
2023-01-26T05:42:01.159Z,9.27
2023-01-26T05:44:29.306Z,8.25
2023-01-26T05:46:55.961Z,8.63
2023-01-26T05:49:22.630Z,8.00
2023-01-26T05:51:49.270Z,7.95
2023-01-26T05:54:15.822Z,8.50
2023-01-26T05:56:42.599Z,7.18
2023-01-26T05:59:09.296Z,7.10
2023-01-26T06:01:35.961Z,5.97
2023-01-26T06:04:02.913Z,6.95
2023-01-26T06:06:29.644Z,7.30
2023-01-26T06:08:56.379Z,7.63
2023-01-26T06:11:23.019Z,7.43
2023-01-26T06:13:49.864Z,8.32
2023-01-26T06:16:16.569Z,7.97
2023-01-26T06:18:43.177Z,8.32
2023-01-26T06:21:09.942Z,7.63
2023-01-26T06:23:36.567Z,8.55
2023-01-26T06:26:03.230Z,9.00
2023-01-26T06:28:31.243Z,8.40
2023-01-26T06:31:02.368Z,9.85
2023-01-26T06:33:31.216Z,9.32
2023-01-26T06:36:05.558Z,9.50
2023-01-26T06:38:32.668Z,11.48
2023-01-26T06:41:03.220Z,10.68
2023-01-26T06:43:31.357Z,11.07
2023-01-26T06:45:59.156Z,10.43
2023-01-26T06:48:26.994Z,11.15
2023-01-26T06:50:57.336Z,12.07
2023-01-26T06:53:33.402Z,11.23
2023-01-26T06:56:00.029Z,12.65
2023-01-26T06:58:26.627Z,11.95
2023-01-26T07:00:53.311Z,12.32
2023-01-26T07:03:19.904Z,12.30
2023-01-26T07:05:46.529Z,13.18
2023-01-26T07:08:13.230Z,13.05
2023-01-26T07:10:39.933Z,13.15
2023-01-26T07:13:06.625Z,13.00
2023-01-26T07:15:33.652Z,12.88
2023-01-26T07:18:00.629Z,12.20
2023-01-26T07:20:27.947Z,11.63
2023-01-26T07:22:54.699Z,13.07
2023-01-26T07:25:21.355Z,13.65
2023-01-26T07:27:47.928Z,12.48
2023-01-26T07:30:14.752Z,13.50
2023-01-26T07:32:42.172Z,13.60
2023-01-26T07:35:09.075Z,13.02
2023-01-26T07:37:35.800Z,13.00
2023-01-26T07:40:03.683Z,12.82
2023-01-26T07:42:31.147Z,13.30
2023-01-26T07:44:57.825Z,12.68
2023-01-26T07:47:24.525Z,13.50
2023-01-26T07:49:51.154Z,12.55
2023-01-26T07:52:17.791Z,12.85
2023-01-26T07:54:44.481Z,11.68
2023-01-26T07:57:12.700Z,11.85
2023-01-26T07:59:39.258Z,11.68
2023-01-26T08:02:06.217Z,12.02
2023-01-26T08:04:32.902Z,11.90
2023-01-26T08:06:59.510Z,11.93
2023-01-26T08:09:26.646Z,11.93
2023-01-26T08:11:53.299Z,12.45
2023-01-26T08:14:19.895Z,11.88
2023-01-26T08:16:46.692Z,11.63
2023-01-26T08:19:13.705Z,12.43
2023-01-26T08:21:40.298Z,12.35
2023-01-26T08:24:07.261Z,13.18
2023-01-26T08:26:33.953Z,14.13
2023-01-26T08:29:00.659Z,13.55
2023-01-26T08:31:28.396Z,15.73
2023-01-26T08:33:56.522Z,14.85
2023-01-26T08:36:23.382Z,16.45
2023-01-26T08:38:51.037Z,17.00
2023-01-26T08:41:18.360Z,17.02
2023-01-26T08:43:45.057Z,17.50
2023-01-26T08:46:11.701Z,17.15
2023-01-26T08:48:38.768Z,19.40
2023-01-26T08:51:06.728Z,18.27
2023-01-26T08:53:35.169Z,18.48
2023-01-26T08:56:06.824Z,18.17
2023-01-26T08:58:34.147Z,19.35
2023-01-26T09:01:12.026Z,18.65
2023-01-26T09:03:38.736Z,17.98
2023-01-26T09:06:06.623Z,17.95
2023-01-26T09:08:33.815Z,18.30
2023-01-26T09:11:00.769Z,18.38
2023-01-26T09:13:27.512Z,17.55
2023-01-26T09:15:54.269Z,15.38
2023-01-26T09:18:20.882Z,12.75
2023-01-26T09:20:47.466Z,13.10
2023-01-26T09:23:16.338Z,14.13
2023-01-26T09:25:42.937Z,14.93
2023-01-26T09:28:09.507Z,14.65
2023-01-26T09:30:36.256Z,15.40
2023-01-26T09:33:05.136Z,14.30
2023-01-26T09:35:31.989Z,14.27
2023-01-26T09:37:58.570Z,12.88
2023-01-26T09:40:43.165Z,12.88
2023-01-26T09:43:29.598Z,12.60
2023-01-26T09:46:23.918Z,12.15
2023-01-26T09:49:05.203Z,12.45
2023-01-26T09:51:38.891Z,12.77
2023-01-26T09:54:05.568Z,13.23
2023-01-26T09:56:35.225Z,12.23
2023-01-26T09:59:17.670Z,13.50
2023-01-26T10:01:53.883Z,13.75
2023-01-26T10:04:33.846Z,12.93
2023-01-26T10:07:02.928Z,13.18
2023-01-26T10:09:35.194Z,13.23
2023-01-26T10:12:08.831Z,13.13
2023-01-26T10:14:35.421Z,14.00
2023-01-26T10:17:05.234Z,13.48
2023-01-26T10:19:43.689Z,12.98
2023-01-26T10:22:18.161Z,12.43
2023-01-26T10:24:49.072Z,13.50
2023-01-26T10:27:15.875Z,13.20
2023-01-26T10:29:42.589Z,12.45
2023-01-26T10:32:18.637Z,13.15
2023-01-26T10:34:51.388Z,13.75
2023-01-26T10:37:22.791Z,12.50
2023-01-26T10:39:57.163Z,11.90
2023-01-26T10:42:28.362Z,11.98
2023-01-26T10:44:55.142Z,12.77
2023-01-26T10:47:22.356Z,11.10
2023-01-26T10:49:49.575Z,11.52
2023-01-26T10:52:24.949Z,11.20
2023-01-26T10:55:11.742Z,12.10
2023-01-26T10:57:41.777Z,11.48
2023-01-26T11:00:23.968Z,11.43
2023-01-26T11:02:59.946Z,11.15
2023-01-26T11:05:27.255Z,10.63
2023-01-26T11:08:00.137Z,11.48
2023-01-26T11:10:27.176Z,10.77
2023-01-26T11:13:19.372Z,9.55
2023-01-26T11:15:50.119Z,11.13
2023-01-26T11:18:29.600Z,9.38
2023-01-26T11:21:27.884Z,9.45
2023-01-26T11:24:03.454Z,9.18
2023-01-26T11:26:48.155Z,8.80
2023-01-26T11:29:41.675Z,9.13
2023-01-26T11:32:33.344Z,8.43
2023-01-26T11:35:09.249Z,8.90
2023-01-26T11:37:38.743Z,9.93
2023-01-26T11:40:14.505Z,8.85
2023-01-26T11:42:47.191Z,8.25
2023-01-26T11:45:39.046Z,8.07
2023-01-26T11:48:45.326Z,9.40
2023-01-26T11:51:39.071Z,8.40
2023-01-26T11:54:19.567Z,8.60
2023-01-26T11:57:04.723Z,8.32
2023-01-26T11:59:38.779Z,8.93
2023-01-26T12:02:27.944Z,9.20
2023-01-26T12:04:55.858Z,8.88
2023-01-26T12:07:29.529Z,7.90
2023-01-26T12:09:56.834Z,7.90
2023-01-26T12:12:40.120Z,7.75
2023-01-26T12:15:11.781Z,8.27
2023-01-26T12:17:53.400Z,7.50
2023-01-26T12:20:41.434Z,7.85
2023-01-26T12:23:21.787Z,7.05
2023-01-26T12:25:54.645Z,8.52
2023-01-26T12:28:44.507Z,7.60
2023-01-26T12:31:28.853Z,6.55
2023-01-26T12:33:57.244Z,6.65
2023-01-26T12:36:34.239Z,6.50
2023-01-26T12:39:12.668Z,7.25
2023-01-26T12:42:04.829Z,6.53
2023-01-26T12:47:42.063Z,6.63
2023-01-26T12:50:27.005Z,6.40
2023-01-26T12:53:19.862Z,6.80
2023-01-26T12:55:54.868Z,7.38
2023-01-26T12:58:44.453Z,7.35
2023-01-26T13:01:21.566Z,6.88
2023-01-26T13:04:05.186Z,6.68
2023-01-26T13:06:32.040Z,7.22
2023-01-26T13:09:06.096Z,7.18
2023-01-26T13:11:49.892Z,7.30
2023-01-26T13:14:25.795Z,6.63
2023-01-26T13:16:52.791Z,6.80
2023-01-26T13:19:34.631Z,6.82
2023-01-26T13:22:01.305Z,7.10
2023-01-26T13:24:27.895Z,6.50
2023-01-26T13:26:57.665Z,7.43
2023-01-26T13:29:27.472Z,7.28
2023-01-26T13:31:55.983Z,6.70
2023-01-26T13:34:28.242Z,7.25
2023-01-26T13:37:04.196Z,7.18
2023-01-26T13:39:41.416Z,8.00
2023-01-26T13:42:28.631Z,7.30
2023-01-26T13:45:03.052Z,8.10
2023-01-26T13:47:41.005Z,7.63
2023-01-26T13:50:28.710Z,7.25
2023-01-26T13:52:55.491Z,7.78
2023-01-26T13:55:28.688Z,8.07
2023-01-26T13:58:18.872Z,8.15
2023-01-26T14:01:02.777Z,8.45
2023-01-26T14:03:31.129Z,14.18
2023-01-26T14:06:06.130Z,8.38
2023-01-26T14:08:33.475Z,8.20
2023-01-26T14:11:02.510Z,8.93
2023-01-26T14:13:34.141Z,9.02
2023-01-26T14:16:02.698Z,9.07
2023-01-26T14:18:29.463Z,8.70
2023-01-26T14:21:14.415Z,8.45
2023-01-26T14:23:41.017Z,11.23
2023-01-26T14:26:22.585Z,9.27
2023-01-26T14:28:49.214Z,9.82
2023-01-26T14:31:22.917Z,9.30
2023-01-26T14:33:55.232Z,9.00
2023-01-26T14:36:22.079Z,8.35
2023-01-26T14:38:51.800Z,9.23
2023-01-26T14:41:37.079Z,9.63
2023-01-26T14:44:06.098Z,9.13
2023-01-26T14:46:52.747Z,9.98
2023-01-26T14:49:54.996Z,9.93
2023-01-26T14:52:25.651Z,50.75
2023-01-26T14:54:54.630Z,22.13
2023-01-26T14:57:25.043Z,37.38
2023-01-26T14:59:55.052Z,12.13
2023-01-26T15:02:26.218Z,26.92
2023-01-26T15:05:14.283Z,18.52
2023-01-26T15:07:40.893Z,13.00
2023-01-26T15:10:35.111Z,12.70
2023-01-26T15:13:10.793Z,9.85
2023-01-26T15:15:40.590Z,12.15
2023-01-26T15:18:13.137Z,11.23
2023-01-26T15:20:45.887Z,12.10
2023-01-26T15:23:23.363Z,12.68
2023-01-26T15:25:50.618Z,11.85
2023-01-26T15:28:19.831Z,12.82
2023-01-26T15:30:50.346Z,12.13
2023-01-26T15:33:38.765Z,12.18
2023-01-26T15:36:06.196Z,12.98
2023-01-26T15:38:32.977Z,13.07
2023-01-26T15:40:59.599Z,13.20
2023-01-26T15:43:26.184Z,13.13
2023-01-26T15:45:57.998Z,13.38
2023-01-26T15:48:24.919Z,13.98
2023-01-26T15:50:51.705Z,13.00
2023-01-26T15:53:21.259Z,13.55
2023-01-26T15:55:58.701Z,13.32
2023-01-26T15:58:26.184Z,13.80
2023-01-26T16:00:53.484Z,14.30
2023-01-26T16:03:22.337Z,15.20
2023-01-26T16:05:49.480Z,15.32
2023-01-26T16:08:17.831Z,14.00
2023-01-26T16:10:45.329Z,14.82
2023-01-26T16:13:20.319Z,14.40
2023-01-26T16:15:52.811Z,15.20
2023-01-26T16:18:20.351Z,15.95
2023-01-26T16:20:48.719Z,16.27
2023-01-26T16:23:26.863Z,17.05
2023-01-26T16:25:53.793Z,16.63
2023-01-26T16:28:21.101Z,18.08
2023-01-26T16:30:50.300Z,18.08
2023-01-26T16:33:22.712Z,17.08
2023-01-26T16:35:49.275Z,16.48
2023-01-26T16:38:16.013Z,17.10
2023-01-26T16:40:44.932Z,15.60
2023-01-26T16:43:30.669Z,15.45
2023-01-26T16:45:57.973Z,20.42
2023-01-26T16:48:24.918Z,19.88
2023-01-26T16:50:53.719Z,19.58
2023-01-26T16:53:28.236Z,17.92
2023-01-26T16:55:55.292Z,17.75
2023-01-26T16:58:23.033Z,17.27
2023-01-26T17:00:49.691Z,16.60
2023-01-26T17:03:16.418Z,17.77
2023-01-26T17:05:43.389Z,17.40
2023-01-26T17:08:10.020Z,17.30
2023-01-26T17:10:36.650Z,17.10
2023-01-26T17:13:03.671Z,18.60
2023-01-26T17:15:30.571Z,17.75
2023-01-26T17:17:57.851Z,17.90
2023-01-26T17:20:25.099Z,17.58
2023-01-26T17:22:51.763Z,17.67
2023-01-26T17:25:19.269Z,16.00
2023-01-26T17:27:49.776Z,17.40
2023-01-26T17:30:19.471Z,18.77
2023-01-26T17:32:46.228Z,18.48
2023-01-26T17:35:12.995Z,20.10
2023-01-26T17:37:40.361Z,18.33
2023-01-26T17:40:10.214Z,19.42
2023-01-26T17:42:37.010Z,20.88
2023-01-26T17:45:05.526Z,20.17
2023-01-26T17:47:33.855Z,18.55
2023-01-26T17:50:02.242Z,18.27
2023-01-26T17:52:28.961Z,18.83
2023-01-26T17:54:55.523Z,17.23
2023-01-26T17:57:22.226Z,17.13
2023-01-26T17:59:48.842Z,18.23
2023-01-26T18:02:15.534Z,18.08
2023-01-26T18:04:42.209Z,18.50
2023-01-26T18:07:08.831Z,19.20
2023-01-26T18:09:35.403Z,19.83
2023-01-26T18:12:02.038Z,18.73
2023-01-26T18:14:29.276Z,17.77
2023-01-26T18:16:55.960Z,17.60
2023-01-26T18:19:22.740Z,17.77
2023-01-26T18:21:51.127Z,17.52
2023-01-26T18:24:17.920Z,18.73
2023-01-26T18:26:45.025Z,18.50
2023-01-26T18:29:11.790Z,18.77
2023-01-26T18:31:43.582Z,16.40
2023-01-26T18:34:11.660Z,18.50
2023-01-26T18:36:38.492Z,20.67
2023-01-26T18:39:07.150Z,25.88
2023-01-26T18:41:35.265Z,23.45
2023-01-26T18:44:03.746Z,19.67
2023-01-26T18:46:31.365Z,22.48
2023-01-26T18:49:03.148Z,22.98
2023-01-26T18:51:32.184Z,22.70
2023-01-26T18:53:59.072Z,21.23
2023-01-26T18:56:26.197Z,22.17
2023-01-26T18:58:53.997Z,21.35
2023-01-26T19:01:21.357Z,21.55
2023-01-26T19:03:55.095Z,22.85
2023-01-26T19:06:23.533Z,22.20
2023-01-26T19:08:58.306Z,21.83
2023-01-26T19:11:27.760Z,21.65
2023-01-26T19:13:55.443Z,23.20
2023-01-26T19:16:22.491Z,24.73
2023-01-26T19:18:49.976Z,24.90
2023-01-26T19:21:21.402Z,27.55
2023-01-26T19:23:49.226Z,25.90
2023-01-26T19:26:19.365Z,25.70
2023-01-26T19:28:50.232Z,26.50
2023-01-26T19:31:19.450Z,19.23
2023-01-26T19:33:57.615Z,23.98
2023-01-26T19:36:25.272Z,24.05
2023-01-26T19:38:52.018Z,25.67
2023-01-26T19:41:19.909Z,23.17
2023-01-26T19:43:46.794Z,24.02
2023-01-26T19:46:14.981Z,25.40
2023-01-26T19:48:42.087Z,22.90
2023-01-26T19:51:12.724Z,22.60
2023-01-26T19:53:41.881Z,19.60
2023-01-26T19:56:12.955Z,19.17
2023-01-26T19:58:40.184Z,13.30
2023-01-26T20:01:09.100Z,17.63
2023-01-26T20:03:36.335Z,17.13
2023-01-26T20:06:04.436Z,15.90
2023-01-26T20:08:31.549Z,17.05
2023-01-26T20:11:05.830Z,16.63
2023-01-26T20:13:33.940Z,15.73
2023-01-26T20:16:01.195Z,16.48
2023-01-26T20:18:27.800Z,15.45
2023-01-26T20:20:55.879Z,15.57
2023-01-26T20:23:23.281Z,16.85
2023-01-26T20:25:51.626Z,17.13
2023-01-26T20:28:18.754Z,15.65
2023-01-26T20:30:45.547Z,19.23
2023-01-26T20:33:12.574Z,23.60
2023-01-26T20:35:40.615Z,25.83
2023-01-26T20:38:07.221Z,24.63
2023-01-26T20:40:33.810Z,24.23
2023-01-26T20:43:00.535Z,16.23
2023-01-26T20:45:27.117Z,16.17
2023-01-26T20:47:53.807Z,16.13
2023-01-26T20:50:20.620Z,15.30
2023-01-26T20:52:47.225Z,15.98
2023-01-26T20:55:13.919Z,16.70
2023-01-26T20:57:40.562Z,16.48
2023-01-26T21:00:08.242Z,16.85
2023-01-26T21:02:34.817Z,16.15
2023-01-26T21:05:01.465Z,16.23
2023-01-26T21:07:28.690Z,16.88
2023-01-26T21:09:55.342Z,18.15
2023-01-26T21:12:21.915Z,18.00
2023-01-26T21:14:48.537Z,17.48
2023-01-26T21:17:16.475Z,17.60
2023-01-26T21:19:43.012Z,17.67
2023-01-26T21:22:09.636Z,18.42
2023-01-26T21:24:36.226Z,18.15
2023-01-26T21:27:03.024Z,18.38
2023-01-26T21:29:29.634Z,17.88
2023-01-26T21:31:56.213Z,17.50
2023-01-26T21:34:22.815Z,18.35
2023-01-26T21:36:49.710Z,17.42
2023-01-26T21:39:16.379Z,15.07
2023-01-26T21:41:57.904Z,16.02
2023-01-26T21:44:31.677Z,16.60
2023-01-26T21:47:01.023Z,15.32
2023-01-26T21:49:28.614Z,16.70
2023-01-26T21:52:25.515Z,17.67
2023-01-26T21:54:52.323Z,17.05
2023-01-26T21:57:37.569Z,15.55
2023-01-26T22:00:04.628Z,15.73
2023-01-26T22:02:31.188Z,15.15
2023-01-26T22:04:57.748Z,16.17
2023-01-26T22:07:24.390Z,16.80
2023-01-26T22:09:51.009Z,18.20
2023-01-26T22:12:17.676Z,18.30
2023-01-26T22:14:44.276Z,15.75
2023-01-26T22:17:10.923Z,17.50
2023-01-26T22:19:37.644Z,17.20
2023-01-26T22:22:04.496Z,17.88
2023-01-26T22:24:31.121Z,16.45
2023-01-26T22:26:57.741Z,19.63
2023-01-26T22:29:24.481Z,16.52
2023-01-26T22:31:51.078Z,16.27
2023-01-26T22:34:17.802Z,15.70
2023-01-26T22:36:44.443Z,14.60
2023-01-26T22:39:12.359Z,17.15
2023-01-26T22:41:39.084Z,16.73
2023-01-26T22:44:06.149Z,16.08
2023-01-26T22:46:33.488Z,18.20
2023-01-26T22:49:00.423Z,15.80
2023-01-26T22:51:30.190Z,15.48
2023-01-26T22:53:58.178Z,15.38
2023-01-26T22:56:25.574Z,16.27
2023-01-26T22:58:59.316Z,15.90
2023-01-26T23:01:31.823Z,15.93
2023-01-26T23:03:59.763Z,15.85
2023-01-26T23:06:26.803Z,16.63
2023-01-26T23:08:54.222Z,14.82
2023-01-26T23:11:26.848Z,16.15
2023-01-26T23:13:55.270Z,16.23
2023-01-26T23:16:23.775Z,15.43
2023-01-26T23:18:51.860Z,15.25
2023-01-26T23:21:19.024Z,15.80
2023-01-26T23:23:45.609Z,15.90
2023-01-26T23:26:12.226Z,15.88
2023-01-26T23:28:41.091Z,15.70
2023-01-26T23:31:08.580Z,15.98
2023-01-26T23:33:36.609Z,15.25
2023-01-26T23:36:04.857Z,15.40
2023-01-26T23:38:31.659Z,15.77
2023-01-26T23:41:00.490Z,15.02
2023-01-26T23:43:27.511Z,15.05
2023-01-26T23:45:56.425Z,16.25
2023-01-26T23:48:24.414Z,15.10
2023-01-26T23:51:04.648Z,14.90
2023-01-26T23:53:31.806Z,15.20
2023-01-26T23:56:06.323Z,14.15
2023-01-26T23:58:33.103Z,14.98
